createdAt,value
2022-09-22T00:01:26.118Z,14.88
2022-09-22T00:03:56.291Z,9.60
2022-09-22T00:06:29.086Z,10.55
2022-09-22T00:09:00.819Z,12.27
2022-09-22T00:11:36.242Z,11.15
2022-09-22T00:14:08.165Z,13.68
2022-09-22T00:16:40.245Z,11.90
2022-09-22T00:19:09.382Z,11.82
2022-09-22T00:21:36.661Z,13.90
2022-09-22T00:24:07.992Z,14.40
2022-09-22T00:26:36.607Z,10.32
2022-09-22T00:29:04.771Z,15.23
2022-09-22T00:31:31.709Z,12.80
2022-09-22T00:33:58.567Z,10.60
2022-09-22T00:36:27.931Z,11.35
2022-09-22T00:38:56.989Z,10.13
2022-09-22T00:41:37.365Z,15.18
2022-09-22T00:44:40.938Z,13.48
2022-09-22T00:47:17.421Z,17.58
2022-09-22T00:49:58.493Z,12.35
2022-09-22T00:52:35.973Z,13.25
2022-09-22T00:55:11.070Z,12.20
2022-09-22T00:57:39.269Z,15.88
2022-09-22T01:00:09.524Z,11.45
2022-09-22T01:02:37.240Z,8.38
2022-09-22T01:05:05.399Z,10.43
2022-09-22T01:07:33.147Z,15.00
2022-09-22T01:10:00.252Z,12.60
2022-09-22T01:12:29.512Z,10.00
2022-09-22T01:15:11.282Z,11.30
2022-09-22T01:18:11.087Z,9.57
2022-09-22T01:20:41.210Z,14.65
2022-09-22T01:23:34.037Z,9.93
2022-09-22T01:26:12.538Z,14.00
2022-09-22T01:29:07.253Z,10.70
2022-09-22T01:32:18.231Z,9.00
2022-09-22T01:34:48.059Z,9.40
2022-09-22T01:37:23.079Z,10.93
2022-09-22T01:40:13.249Z,15.48
2022-09-22T01:42:47.344Z,12.27
2022-09-22T01:45:21.055Z,13.40
2022-09-22T01:47:53.916Z,11.13
2022-09-22T01:50:26.859Z,13.52
2022-09-22T01:52:56.147Z,15.50
2022-09-22T01:55:31.815Z,14.13
2022-09-22T01:58:03.913Z,10.02
2022-09-22T02:00:32.752Z,10.68
2022-09-22T02:03:14.677Z,12.38
2022-09-22T02:05:52.520Z,12.77
2022-09-22T02:08:30.629Z,10.80
2022-09-22T02:11:03.690Z,12.98
2022-09-22T02:13:30.596Z,10.93
2022-09-22T02:16:00.315Z,9.43
2022-09-22T02:18:50.286Z,12.07
2022-09-22T02:21:18.535Z,11.45
2022-09-22T02:23:46.836Z,11.77
2022-09-22T02:26:23.601Z,16.40
2022-09-22T02:29:00.870Z,12.65
2022-09-22T02:31:31.475Z,10.93
2022-09-22T02:33:58.853Z,17.00
2022-09-22T02:36:38.570Z,15.57
2022-09-22T02:39:27.102Z,10.45
2022-09-22T02:42:15.762Z,11.82
2022-09-22T02:44:50.332Z,10.38
2022-09-22T02:47:22.574Z,11.38
2022-09-22T02:49:51.286Z,11.80
2022-09-22T02:52:21.315Z,11.75
2022-09-22T02:54:48.487Z,9.13
2022-09-22T02:57:15.468Z,9.93
2022-09-22T02:59:42.362Z,13.93
2022-09-22T03:02:09.356Z,10.63
2022-09-22T03:04:36.256Z,10.00
2022-09-22T03:07:03.317Z,7.50
2022-09-22T03:09:30.330Z,12.68
2022-09-22T03:11:57.483Z,11.68
2022-09-22T03:14:24.496Z,10.48
2022-09-22T03:16:51.332Z,13.38
2022-09-22T03:19:18.299Z,13.50
2022-09-22T03:21:45.492Z,13.57
2022-09-22T03:24:12.395Z,8.27
2022-09-22T03:26:39.886Z,10.45
2022-09-22T03:29:07.252Z,14.65
2022-09-22T03:31:34.210Z,13.63
2022-09-22T03:34:01.271Z,10.05
2022-09-22T03:36:28.461Z,11.70
2022-09-22T03:38:55.373Z,9.50
2022-09-22T03:41:22.070Z,9.20
2022-09-22T03:43:49.217Z,10.07
2022-09-22T03:46:16.566Z,11.30
2022-09-22T03:48:45.306Z,11.52
2022-09-22T03:51:12.625Z,13.65
2022-09-22T03:53:39.620Z,8.00
2022-09-22T03:56:08.412Z,8.73
2022-09-22T03:58:36.314Z,8.93
2022-09-22T04:01:05.162Z,8.95
2022-09-22T04:03:32.440Z,11.82
2022-09-22T04:05:59.556Z,8.80
2022-09-22T04:08:26.785Z,12.02
2022-09-22T04:10:54.119Z,11.07
2022-09-22T04:13:20.890Z,9.38
2022-09-22T04:15:47.626Z,10.07
2022-09-22T04:18:16.086Z,12.07
2022-09-22T04:20:44.572Z,13.55
2022-09-22T04:23:12.921Z,10.93
2022-09-22T04:25:39.776Z,7.50
2022-09-22T04:28:08.033Z,12.05
2022-09-22T04:30:36.874Z,9.30
2022-09-22T04:33:03.772Z,16.80
2022-09-22T04:35:30.774Z,21.50
2022-09-22T04:37:58.382Z,28.30
2022-09-22T04:40:26.278Z,23.15
2022-09-22T04:42:53.361Z,22.00
2022-09-22T04:45:20.671Z,17.52
2022-09-22T04:47:49.944Z,18.00
2022-09-22T04:50:18.654Z,14.32
2022-09-22T04:52:54.368Z,24.77
2022-09-22T04:55:22.753Z,15.48
2022-09-22T04:57:54.102Z,16.95
2022-09-22T05:00:23.271Z,15.48
2022-09-22T05:02:50.585Z,13.35
2022-09-22T05:05:18.520Z,14.27
2022-09-22T05:07:47.554Z,13.25
2022-09-22T05:10:16.586Z,16.60
2022-09-22T05:12:44.236Z,16.85
2022-09-22T05:15:14.101Z,16.30
2022-09-22T05:17:48.535Z,14.15
2022-09-22T05:20:16.007Z,20.45
2022-09-22T05:22:43.434Z,12.93
2022-09-22T05:25:12.990Z,13.10
2022-09-22T05:27:50.649Z,14.00
2022-09-22T05:30:18.442Z,16.60
2022-09-22T05:32:46.658Z,14.68
2022-09-22T05:35:18.460Z,14.30
2022-09-22T05:37:47.590Z,16.80
2022-09-22T05:40:15.743Z,15.73
2022-09-22T05:42:47.841Z,18.25
2022-09-22T05:45:15.988Z,16.83
2022-09-22T05:47:43.367Z,14.98
2022-09-22T05:50:12.286Z,16.02
2022-09-22T05:52:40.641Z,17.80
2022-09-22T05:55:08.254Z,18.80
2022-09-22T05:57:35.285Z,12.45
2022-09-22T06:00:02.555Z,17.05
2022-09-22T06:02:29.471Z,15.85
2022-09-22T06:04:56.336Z,16.25
2022-09-22T06:07:26.842Z,21.40
2022-09-22T06:09:53.762Z,25.23
2022-09-22T06:12:21.129Z,22.50
2022-09-22T06:14:48.108Z,20.20
2022-09-22T06:17:15.279Z,24.23
2022-09-22T06:19:43.365Z,15.55
2022-09-22T06:22:11.847Z,16.85
2022-09-22T06:24:38.756Z,17.38
2022-09-22T06:27:05.641Z,23.95
2022-09-22T06:29:32.541Z,16.90
2022-09-22T06:31:59.388Z,23.45
2022-09-22T06:34:27.345Z,25.55
2022-09-22T06:36:57.194Z,47.15
2022-09-22T06:39:24.109Z,29.65
2022-09-22T06:41:50.935Z,41.00
2022-09-22T06:44:18.071Z,60.38
2022-09-22T06:46:45.845Z,57.63
2022-09-22T06:49:13.763Z,56.15
2022-09-22T06:51:40.887Z,53.15
2022-09-22T06:54:07.971Z,35.15
2022-09-22T06:56:42.791Z,27.20
2022-09-22T06:59:12.927Z,20.83
2022-09-22T07:01:45.159Z,20.48
2022-09-22T07:04:12.559Z,23.20
2022-09-22T07:06:40.686Z,24.42
2022-09-22T07:09:09.448Z,19.88
2022-09-22T07:11:40.038Z,21.10
2022-09-22T07:14:08.690Z,25.38
2022-09-22T07:16:36.358Z,19.38
2022-09-22T07:19:04.899Z,20.15
2022-09-22T07:21:38.369Z,17.60
2022-09-22T07:24:08.233Z,21.50
2022-09-22T07:26:38.213Z,19.75
2022-09-22T07:29:13.166Z,19.75
2022-09-22T07:31:42.047Z,20.75
2022-09-22T07:34:09.394Z,23.60
2022-09-22T07:36:37.141Z,19.35
2022-09-22T07:39:11.335Z,20.27
2022-09-22T07:41:44.083Z,19.77
2022-09-22T07:44:34.400Z,23.77
2022-09-22T07:47:02.952Z,23.05
2022-09-22T07:49:30.279Z,21.13
2022-09-22T07:51:58.144Z,29.85
2022-09-22T07:54:26.423Z,25.67
2022-09-22T07:56:58.372Z,22.02
2022-09-22T07:59:26.460Z,24.08
2022-09-22T08:01:53.773Z,21.13
2022-09-22T08:04:26.492Z,21.63
2022-09-22T08:06:55.993Z,19.40
2022-09-22T08:09:24.601Z,22.88
2022-09-22T08:11:53.244Z,21.92
2022-09-22T08:14:24.154Z,23.27
2022-09-22T08:16:53.341Z,20.15
2022-09-22T08:19:22.992Z,16.52
2022-09-22T08:21:51.832Z,19.52
2022-09-22T08:24:23.706Z,17.73
2022-09-22T08:26:56.383Z,19.42
2022-09-22T08:29:24.424Z,19.90
2022-09-22T08:31:51.518Z,18.50
2022-09-22T08:34:18.506Z,22.02
2022-09-22T08:36:48.692Z,21.13
2022-09-22T08:39:17.357Z,18.23
2022-09-22T08:41:56.552Z,16.45
2022-09-22T08:44:37.460Z,17.70
2022-09-22T08:47:05.014Z,17.10
2022-09-22T08:50:07.256Z,22.20
2022-09-22T08:52:43.491Z,15.05
2022-09-22T08:55:19.921Z,22.58
2022-09-22T08:58:09.170Z,23.02
2022-09-22T09:00:48.364Z,14.80
2022-09-22T09:03:46.455Z,16.98
2022-09-22T09:06:28.872Z,12.43
2022-09-22T09:09:10.990Z,13.63
2022-09-22T09:11:59.628Z,11.18
2022-09-22T09:14:53.827Z,9.80
2022-09-22T09:17:21.058Z,8.88
2022-09-22T09:19:52.810Z,8.93
2022-09-22T09:22:28.782Z,10.85
2022-09-22T09:27:57.323Z,12.30
2022-09-22T09:30:24.452Z,7.97
2022-09-22T09:33:00.931Z,9.40
2022-09-22T09:35:39.655Z,8.80
2022-09-22T09:38:14.757Z,11.50
2022-09-22T09:40:41.889Z,7.60
2022-09-22T09:43:10.688Z,6.60
2022-09-22T09:46:00.634Z,9.25
2022-09-22T09:48:55.981Z,7.20
2022-09-22T09:51:23.318Z,11.40
2022-09-22T09:53:52.551Z,8.35
2022-09-22T09:56:25.561Z,7.35
2022-09-22T09:59:25.430Z,7.00
2022-09-22T10:01:54.694Z,5.88
2022-09-22T10:04:33.920Z,9.65
2022-09-22T10:07:32.738Z,9.18
2022-09-22T10:10:37.769Z,5.78
2022-09-22T10:13:07.287Z,9.88
2022-09-22T10:15:41.803Z,6.53
2022-09-22T10:18:26.719Z,10.23
2022-09-22T10:21:07.355Z,7.85
2022-09-22T10:23:34.781Z,10.43
2022-09-22T10:26:26.302Z,8.75
2022-09-22T10:29:06.880Z,5.70
2022-09-22T10:31:35.181Z,6.75
2022-09-22T10:34:02.210Z,4.85
2022-09-22T10:36:30.889Z,5.13
2022-09-22T10:38:59.784Z,7.07
2022-09-22T10:41:34.204Z,9.57
2022-09-22T10:44:34.706Z,5.60
2022-09-22T10:47:12.457Z,5.20
2022-09-22T10:50:07.344Z,4.07
2022-09-22T10:52:44.035Z,4.63
2022-09-22T10:55:13.982Z,7.95
2022-09-22T10:57:44.009Z,7.75
2022-09-22T11:00:16.274Z,4.88
2022-09-22T11:02:52.129Z,5.68
2022-09-22T11:06:11.399Z,4.22
2022-09-22T11:09:11.243Z,4.50
2022-09-22T11:12:19.325Z,6.43
2022-09-22T11:14:52.475Z,5.20
2022-09-22T11:17:45.549Z,5.82
2022-09-22T11:20:24.580Z,3.47
2022-09-22T11:23:16.542Z,4.28
2022-09-22T11:26:01.977Z,3.22
2022-09-22T11:28:57.064Z,4.85
2022-09-22T11:31:55.223Z,3.92
2022-09-22T11:34:40.167Z,5.03
2022-09-22T11:37:46.995Z,3.42
2022-09-22T11:40:36.430Z,4.18
2022-09-22T11:43:29.344Z,3.83
2022-09-22T11:46:23.730Z,10.68
2022-09-22T11:49:00.792Z,4.22
2022-09-22T11:51:54.498Z,5.40
2022-09-22T11:54:37.594Z,3.10
2022-09-22T11:57:12.086Z,7.50
2022-09-22T11:59:51.774Z,8.20
2022-09-22T12:02:55.121Z,8.18
2022-09-22T12:05:42.765Z,5.65
2022-09-22T12:08:22.756Z,3.75
2022-09-22T12:10:52.850Z,4.00
2022-09-22T12:13:29.497Z,2.45
2022-09-22T12:16:19.593Z,6.20
2022-09-22T12:19:15.935Z,16.67
2022-09-22T12:21:54.419Z,5.32
2022-09-22T12:24:21.317Z,6.60
2022-09-22T12:26:51.748Z,4.13
2022-09-22T12:29:33.611Z,5.65
2022-09-22T12:32:01.141Z,6.70
2022-09-22T12:34:40.062Z,3.28
2022-09-22T12:37:33.053Z,4.95
2022-09-22T12:40:36.419Z,4.75
2022-09-22T12:43:03.672Z,2.25
2022-09-22T12:45:37.950Z,7.57
2022-09-22T12:48:36.317Z,4.47
2022-09-22T12:51:38.047Z,2.67
2022-09-22T12:54:30.501Z,4.82
2022-09-22T12:57:29.354Z,5.20
2022-09-22T13:00:10.987Z,6.65
2022-09-22T13:02:43.485Z,3.65
2022-09-22T13:05:10.185Z,7.43
2022-09-22T13:07:41.755Z,4.05
2022-09-22T13:10:23.978Z,3.40
2022-09-22T13:13:12.203Z,2.65
2022-09-22T13:15:51.140Z,3.65
2022-09-22T13:18:29.731Z,4.82
2022-09-22T13:20:58.113Z,6.13
2022-09-22T13:23:26.296Z,5.32
2022-09-22T13:25:54.216Z,4.13
2022-09-22T13:28:28.133Z,2.90
2022-09-22T13:31:06.142Z,5.53
2022-09-22T13:33:36.237Z,3.35
2022-09-22T13:36:08.274Z,2.75
2022-09-22T13:38:51.188Z,2.63
2022-09-22T13:41:29.746Z,4.80
2022-09-22T13:44:07.909Z,8.65
2022-09-22T13:46:50.311Z,3.42
2022-09-22T13:49:51.875Z,5.88
2022-09-22T13:52:26.514Z,4.93
2022-09-22T13:54:57.634Z,5.20
2022-09-22T13:57:29.876Z,2.65
2022-09-22T14:00:00.832Z,5.53
2022-09-22T14:02:31.887Z,5.88
2022-09-22T14:05:08.024Z,5.10
2022-09-22T14:07:49.661Z,5.03
2022-09-22T14:10:27.752Z,3.83
2022-09-22T14:12:55.620Z,4.82
2022-09-22T14:15:37.588Z,4.15
2022-09-22T14:18:28.197Z,5.32
2022-09-22T14:20:57.327Z,6.47
2022-09-22T14:23:28.164Z,4.15
2022-09-22T14:25:57.858Z,3.88
2022-09-22T14:28:29.083Z,4.28
2022-09-22T14:30:56.455Z,6.22
2022-09-22T14:33:27.982Z,5.40
2022-09-22T14:36:05.961Z,5.95
2022-09-22T14:38:43.100Z,10.27
2022-09-22T14:41:26.318Z,3.80
2022-09-22T14:43:54.696Z,5.30
2022-09-22T14:46:33.763Z,8.10
2022-09-22T14:49:32.402Z,5.85
2022-09-22T14:52:00.680Z,4.63
2022-09-22T14:54:32.119Z,4.03
2022-09-22T14:57:00.747Z,5.72
2022-09-22T14:59:46.120Z,3.75
2022-09-22T15:02:33.512Z,3.85
2022-09-22T15:05:05.299Z,1.77
2022-09-22T15:07:39.100Z,4.80
2022-09-22T15:10:19.277Z,2.92
2022-09-22T15:12:49.621Z,3.70
2022-09-22T15:15:17.464Z,4.10
2022-09-22T15:18:05.046Z,6.10
2022-09-22T15:20:38.658Z,5.82
2022-09-22T15:23:16.575Z,4.32
2022-09-22T15:25:44.631Z,4.63
2022-09-22T15:28:14.516Z,1.50
2022-09-22T15:30:44.098Z,3.67
2022-09-22T15:33:13.661Z,6.43
2022-09-22T15:35:46.004Z,2.25
2022-09-22T15:38:23.778Z,2.88
2022-09-22T15:40:51.835Z,2.30
2022-09-22T15:43:31.197Z,1.48
2022-09-22T15:46:03.888Z,1.80
2022-09-22T15:48:46.091Z,4.68
2022-09-22T15:51:14.420Z,2.72
2022-09-22T15:53:42.228Z,3.47
2022-09-22T15:56:19.943Z,4.95
2022-09-22T15:58:49.557Z,5.07
2022-09-22T16:01:18.036Z,1.63
2022-09-22T16:03:45.309Z,4.43
2022-09-22T16:06:16.584Z,4.70
2022-09-22T16:08:51.849Z,9.07
2022-09-22T16:11:30.978Z,2.92
2022-09-22T16:14:06.486Z,4.13
2022-09-22T16:16:34.558Z,2.63
2022-09-22T16:19:02.031Z,2.83
2022-09-22T16:21:35.068Z,2.40
2022-09-22T16:24:08.638Z,4.20
2022-09-22T16:26:38.119Z,2.60
2022-09-22T16:29:06.877Z,2.53
2022-09-22T16:31:34.927Z,3.20
2022-09-22T16:34:03.861Z,4.20
2022-09-22T16:36:33.699Z,3.45
2022-09-22T16:39:04.378Z,4.35
2022-09-22T16:41:33.531Z,4.63
2022-09-22T16:44:01.995Z,7.25
2022-09-22T16:46:30.654Z,6.47
2022-09-22T16:49:05.502Z,5.53
2022-09-22T16:51:34.653Z,2.78
2022-09-22T16:54:01.915Z,4.82
2022-09-22T16:56:33.288Z,5.22
2022-09-22T16:59:03.316Z,3.35
2022-09-22T17:01:32.535Z,2.05
2022-09-22T17:03:59.429Z,5.88
2022-09-22T17:06:27.422Z,4.63
2022-09-22T17:08:57.129Z,5.82
2022-09-22T17:11:36.771Z,5.30
2022-09-22T17:14:12.223Z,6.57
2022-09-22T17:16:41.136Z,3.10
2022-09-22T17:19:16.480Z,6.03
2022-09-22T17:21:43.911Z,5.60
2022-09-22T17:24:11.062Z,3.28
2022-09-22T17:26:47.919Z,7.38
2022-09-22T17:29:16.361Z,4.78
2022-09-22T17:31:46.140Z,6.65
2022-09-22T17:34:14.288Z,2.75
2022-09-22T17:36:41.161Z,2.80
2022-09-22T17:39:10.629Z,3.80
2022-09-22T17:41:45.629Z,7.47
2022-09-22T17:44:13.865Z,3.35
2022-09-22T17:47:00.598Z,3.05
2022-09-22T17:49:46.280Z,5.85
2022-09-22T17:52:34.397Z,4.45
2022-09-22T17:55:06.936Z,5.93
2022-09-22T17:57:37.125Z,3.58
2022-09-22T18:00:06.665Z,3.47
2022-09-22T18:02:38.117Z,3.33
2022-09-22T18:05:06.810Z,3.13
2022-09-22T18:07:40.246Z,4.53
2022-09-22T18:10:14.003Z,5.75
2022-09-22T18:12:41.328Z,3.80
2022-09-22T18:15:12.899Z,9.27
2022-09-22T18:17:42.360Z,3.00
2022-09-22T18:20:15.033Z,5.90
2022-09-22T18:22:48.298Z,5.63
2022-09-22T18:25:19.290Z,7.88
2022-09-22T18:27:48.647Z,3.13
2022-09-22T18:30:19.487Z,5.88
2022-09-22T18:32:47.859Z,8.88
2022-09-22T18:35:15.044Z,10.63
2022-09-22T18:37:42.165Z,4.15
2022-09-22T18:40:12.252Z,6.60
2022-09-22T18:42:39.735Z,7.75
2022-09-22T18:45:07.227Z,7.15
2022-09-22T18:47:40.916Z,8.27
2022-09-22T18:50:08.756Z,6.32
2022-09-22T18:52:36.840Z,4.97
2022-09-22T18:55:05.113Z,3.22
2022-09-22T18:57:31.918Z,8.18
2022-09-22T19:00:00.337Z,10.20
2022-09-22T19:02:27.754Z,7.82
2022-09-22T19:04:54.958Z,4.93
2022-09-22T19:07:44.177Z,8.23
2022-09-22T19:10:20.644Z,3.75
2022-09-22T19:12:48.765Z,6.00
2022-09-22T19:15:18.819Z,8.52
2022-09-22T19:17:49.825Z,7.82
2022-09-22T19:20:22.110Z,9.40
2022-09-22T19:22:50.535Z,8.73
2022-09-22T19:25:18.411Z,12.60
2022-09-22T19:27:46.298Z,10.60
2022-09-22T19:30:14.222Z,9.00
2022-09-22T19:32:41.233Z,8.95
2022-09-22T19:35:09.014Z,10.82
2022-09-22T19:37:35.923Z,9.88
2022-09-22T19:40:03.797Z,9.18
2022-09-22T19:42:31.734Z,6.57
2022-09-22T19:45:00.268Z,8.63
2022-09-22T19:47:27.903Z,9.68
2022-09-22T19:49:55.144Z,7.45
2022-09-22T19:52:22.424Z,12.25
2022-09-22T19:54:52.182Z,8.05
2022-09-22T19:57:19.391Z,10.15
2022-09-22T19:59:46.499Z,9.00
2022-09-22T20:02:15.245Z,8.25
2022-09-22T20:04:43.593Z,6.00
2022-09-22T20:07:10.942Z,7.75
2022-09-22T20:09:38.351Z,10.13
2022-09-22T20:12:06.016Z,9.93
2022-09-22T20:14:34.488Z,6.80
2022-09-22T20:17:07.583Z,8.07
2022-09-22T20:19:39.752Z,10.23
2022-09-22T20:22:27.614Z,10.27
2022-09-22T20:25:01.429Z,8.05
2022-09-22T20:27:31.801Z,7.22
2022-09-22T20:30:00.304Z,8.85
2022-09-22T20:32:29.322Z,5.60
2022-09-22T20:34:56.323Z,7.05
2022-09-22T20:37:25.020Z,6.95
2022-09-22T20:39:52.477Z,9.10
2022-09-22T20:42:19.589Z,9.38
2022-09-22T20:44:47.169Z,5.70
2022-09-22T20:47:16.074Z,9.10
2022-09-22T20:49:45.054Z,9.10
2022-09-22T20:52:16.815Z,9.65
2022-09-22T20:54:44.866Z,7.63
2022-09-22T20:57:11.943Z,7.07
2022-09-22T20:59:39.615Z,8.55
2022-09-22T21:02:07.287Z,6.95
2022-09-22T21:04:34.580Z,9.00
2022-09-22T21:07:01.798Z,6.57
2022-09-22T21:09:47.085Z,15.25
2022-09-22T21:12:13.954Z,17.25
2022-09-22T21:14:46.113Z,10.48
2022-09-22T21:17:14.008Z,6.47
2022-09-22T21:19:41.144Z,6.93
2022-09-22T21:22:09.201Z,6.60
2022-09-22T21:24:36.494Z,4.65
2022-09-22T21:27:04.496Z,7.60
2022-09-22T21:29:31.614Z,6.55
2022-09-22T21:31:58.737Z,6.20
2022-09-22T21:34:25.890Z,6.78
2022-09-22T21:36:53.060Z,10.57
2022-09-22T21:39:21.452Z,5.75
2022-09-22T21:41:48.683Z,3.45
2022-09-22T21:44:15.739Z,5.32
2022-09-22T21:46:44.320Z,11.70
2022-09-22T21:49:11.750Z,8.15
2022-09-22T21:51:44.466Z,5.68
2022-09-22T21:54:18.180Z,6.07
2022-09-22T21:56:46.020Z,3.97
2022-09-22T21:59:13.443Z,5.43
2022-09-22T22:01:42.191Z,8.48
2022-09-22T22:04:10.385Z,5.40
2022-09-22T22:06:40.701Z,10.55
2022-09-22T22:09:21.541Z,10.48
2022-09-22T22:11:56.973Z,6.80
2022-09-22T22:14:27.263Z,8.55
2022-09-22T22:16:55.699Z,8.07
2022-09-22T22:19:25.781Z,6.60
2022-09-22T22:21:53.253Z,7.28
2022-09-22T22:24:25.500Z,7.68
2022-09-22T22:26:57.260Z,12.50
2022-09-22T22:29:26.594Z,7.80
2022-09-22T22:31:54.292Z,8.57
2022-09-22T22:34:26.911Z,9.88
2022-09-22T22:36:55.303Z,6.20
2022-09-22T22:39:22.333Z,7.55
2022-09-22T22:41:49.173Z,8.80
2022-09-22T22:44:19.193Z,9.13
2022-09-22T22:46:46.545Z,4.38
2022-09-22T22:49:13.897Z,5.38
2022-09-22T22:51:45.534Z,6.25
2022-09-22T22:54:13.375Z,6.68
2022-09-22T22:56:42.308Z,5.45
2022-09-22T22:59:10.661Z,6.32
2022-09-22T23:01:37.669Z,5.88
2022-09-22T23:04:07.283Z,7.55
2022-09-22T23:06:41.780Z,8.35
2022-09-22T23:09:14.216Z,7.95
2022-09-22T23:11:41.900Z,10.15
2022-09-22T23:14:11.602Z,14.82
2022-09-22T23:16:46.808Z,9.82
2022-09-22T23:19:16.900Z,7.47
2022-09-22T23:21:45.064Z,10.70
2022-09-22T23:24:16.448Z,11.77
2022-09-22T23:26:44.922Z,9.85
2022-09-22T23:29:11.748Z,7.03
2022-09-22T23:31:38.531Z,8.35
2022-09-22T23:34:05.396Z,4.57
2022-09-22T23:36:32.151Z,6.72
2022-09-22T23:39:04.757Z,5.93
2022-09-22T23:41:36.769Z,6.18
2022-09-22T23:44:06.707Z,7.65
2022-09-22T23:46:34.636Z,9.50
2022-09-22T23:49:02.469Z,9.18
2022-09-22T23:51:29.672Z,10.98
2022-09-22T23:53:57.350Z,6.32
2022-09-22T23:56:25.290Z,6.32
2022-09-22T23:58:52.258Z,6.97
